Agua Branca, Brazil
Current Conditions -  °F | °C
As of 1:00 PM on Thursday 30 Oct 2014 (Local Time) from SBTE Reporting Station
Scattered Clouds Scattered Clouds  
Wind Chill: 99°   Ceiling: Unl
Heat Index: 99°   Visibility: 6mi
Dew Point: 55°   Wind: 7mph
Humidity: 24%   Direction: 80°E
Pressure: 29.77"   Gusts: NA
Location:  5.89°S, 42.64°W
Report Text: SBTE 301600Z 08006KT 9999 FEW033 SCT100 37/13 Q1008
Loading
Personal Weather Stations






























Interactive Weather Map
Tropical Storm Tracking
New forecast layout! Learn more

10-Day Weather Forecast

Advertisements
Track Severe Weather on mobile